Time;durP1;ratioP1;P1;durP2;ratioP2;P2;SDS_P1;SDS_P2;PMS_P1;PMS_P2;Temp;Humidity;BMP_temperature;BMP_pressure;BME280_temperature;BME280_humidity;BME280_pressure;Samples;Min_cycle;Max_cycle;Signal;HPM_P1;HPM_P2
2023/04/23 00:00:06;;;;;;;93.22;33.85;;;6.70;99.90;;;;;;5031780;28;20049;-51
2023/04/23 00:02:33;;;;;;;100.22;34.22;;;6.70;99.90;;;;;;5032591;28;20076;-50
2023/04/23 00:05:04;;;;;;;99.43;33.75;;;6.70;99.90;;;;;;5034222;28;20038;-48
2023/04/23 00:07:34;;;;;;;104.95;33.08;;;6.60;99.90;;;;;;5033225;28;20042;-48
2023/04/23 00:10:03;;;;;;;121.50;33.42;;;6.60;99.90;;;;;;5030634;28;20781;-48
2023/04/23 00:12:29;;;;;;;119.03;35.88;;;6.60;99.90;;;;;;5031107;28;20041;-50
2023/04/23 00:14:55;;;;;;;103.88;35.05;;;6.60;99.90;;;;;;5033298;28;20045;-51
2023/04/23 00:17:21;;;;;;;99.97;31.98;;;6.60;99.90;;;;;;5037217;28;20407;-49
2023/04/23 00:19:46;;;;;;;85.57;33.55;;;6.70;99.90;;;;;;5037859;28;20055;-49
2023/04/23 00:22:13;;;;;;;106.80;34.85;;;6.90;99.90;;;;;;5028818;28;20045;-51
2023/04/23 00:24:39;;;;;;;106.47;36.55;;;7.40;99.90;;;;;;5032849;28;20046;-49
2023/04/23 00:27:05;;;;;;;118.80;35.80;;;8.10;99.90;;;;;;5021220;28;20783;-50
2023/04/23 00:29:31;;;;;;;93.03;34.28;;;7.10;99.90;;;;;;4998295;28;20052;-50
2023/04/23 00:31:57;;;;;;;94.13;34.45;;;7.60;99.90;;;;;;5027215;28;20045;-51
2023/04/23 00:34:22;;;;;;;119.50;37.97;;;8.00;99.90;;;;;;5032946;28;20120;-51
2023/04/23 00:36:48;;;;;;;88.32;34.42;;;7.20;99.90;;;;;;5031595;28;20115;-52
2023/04/23 00:39:14;;;;;;;93.93;35.65;;;7.20;99.90;;;;;;5035284;28;20049;-51
2023/04/23 00:41:41;;;;;;;112.75;34.72;;;7.30;99.90;;;;;;5030135;28;20045;-48
2023/04/23 00:44:10;;;;;;;84.35;33.33;;;7.60;99.90;;;;;;5042207;28;20045;-49
2023/04/23 00:46:36;;;;;;;108.88;36.13;;;8.10;99.90;;;;;;5036944;28;20065;-51
2023/04/23 00:49:02;;;;;;;136.20;34.70;;;7.30;99.90;;;;;;5016143;28;20123;-50
2023/04/23 00:51:30;;;;;;;123.30;35.53;;;8.20;99.90;;;;;;5034681;28;20062;-50
2023/04/23 00:53:57;;;;;;;122.50;34.97;;;7.20;99.90;;;;;;5036855;28;20071;-51
2023/04/23 00:56:23;;;;;;;97.47;33.78;;;7.20;99.90;;;;;;5030964;28;20045;-52
2023/04/23 00:58:51;;;;;;;148.23;36.15;;;7.50;99.90;;;;;;5022376;28;20049;-49
2023/04/23 01:01:19;;;;;;;105.25;34.90;;;7.20;99.90;;;;;;5036125;28;20042;-51
2023/04/23 01:03:47;;;;;;;101.80;35.40;;;7.10;99.90;;;;;;5041344;28;20056;-49
2023/04/23 01:06:13;;;;;;;107.15;34.13;;;7.40;99.90;;;;;;5035303;28;20437;-52
2023/04/23 01:08:42;;;;;;;105.75;35.33;;;7.10;99.90;;;;;;5041557;28;20144;-48
2023/04/23 01:11:07;;;;;;;82.25;34.38;;;7.00;99.90;;;;;;5034434;28;20259;-50
2023/04/23 01:13:34;;;;;;;116.53;36.75;;;7.00;99.90;;;;;;5036851;28;20056;-50
2023/04/23 01:16:00;;;;;;;100.97;35.03;;;7.90;99.90;;;;;;5036613;28;20038;-50
2023/04/23 01:18:26;;;;;;;139.93;38.80;;;7.30;99.90;;;;;;5037258;28;20048;-50
2023/04/23 01:20:52;;;;;;;112.00;35.40;;;7.50;99.90;;;;;;5034733;28;20045;-48
2023/04/23 01:23:18;;;;;;;108.28;35.85;;;7.10;99.90;;;;;;5015371;28;20053;-48
2023/04/23 01:25:44;;;;;;;113.10;36.15;;;7.10;99.90;;;;;;5036022;28;20779;-48
2023/04/23 01:28:10;;;;;;;109.30;35.55;;;7.90;99.90;;;;;;5034819;28;20037;-48
2023/04/23 01:30:38;;;;;;;114.75;36.88;;;8.10;99.90;;;;;;5028918;28;20647;-50
2023/04/23 01:33:05;;;;;;;90.93;34.25;;;7.10;99.90;;;;;;5039711;28;20041;-48
2023/04/23 01:35:31;;;;;;;132.32;37.90;;;7.90;99.90;;;;;;5041807;28;20044;-48
2023/04/23 01:37:59;;;;;;;123.40;38.70;;;7.00;99.90;;;;;;5040696;28;20115;-48
2023/04/23 01:40:25;;;;;;;126.60;38.00;;;7.00;99.90;;;;;;5034012;28;20083;-48
2023/04/23 01:42:51;;;;;;;103.63;37.25;;;8.00;99.90;;;;;;5033310;28;20041;-50
2023/04/23 01:45:18;;;;;;;104.80;37.83;;;7.10;99.90;;;;;;5038860;28;20033;-49
2023/04/23 01:47:44;;;;;;;88.25;36.47;;;7.00;99.90;;;;;;5039427;28;20116;-50
2023/04/23 01:50:10;;;;;;;98.97;36.92;;;7.90;99.90;;;;;;5032927;28;20037;-51
2023/04/23 01:52:36;;;;;;;118.95;39.17;;;7.00;99.90;;;;;;5036054;28;20409;-50
2023/04/23 01:55:02;;;;;;;116.82;37.72;;;7.00;99.90;;;;;;5031175;28;20064;-49
2023/04/23 01:57:28;;;;;;;104.97;37.55;;;7.00;99.90;;;;;;5023380;28;20053;-50
2023/04/23 02:00:07;;;;;;;103.03;36.85;;;6.90;99.90;;;;;;5040012;28;20052;-51
2023/04/23 02:02:36;;;;;;;98.20;38.30;;;6.90;99.90;;;;;;5040176;28;20164;-50
2023/04/23 02:05:03;;;;;;;111.47;41.58;;;6.90;99.90;;;;;;5036919;28;20042;-47
2023/04/23 02:07:33;;;;;;;105.22;38.55;;;6.90;99.90;;;;;;5024508;28;20060;-51
2023/04/23 02:10:00;;;;;;;149.05;40.30;;;6.80;99.90;;;;;;5037214;28;20041;-51
2023/04/23 02:12:26;;;;;;;106.88;38.63;;;7.00;99.90;;;;;;5034216;28;20073;-50
2023/04/23 02:14:52;;;;;;;111.35;41.05;;;6.80;99.90;;;;;;5033561;28;20072;-51
2023/04/23 02:17:21;;;;;;;121.80;40.53;;;6.80;99.90;;;;;;5034060;28;20586;-49
2023/04/23 02:19:48;;;;;;;156.73;44.50;;;6.80;99.90;;;;;;5034641;28;20080;-50
2023/04/23 02:22:15;;;;;;;118.60;41.90;;;7.30;99.90;;;;;;5030428;28;20046;-50
2023/04/23 02:24:41;;;;;;;147.52;43.92;;;6.70;99.90;;;;;;5034959;28;20043;-49
2023/04/23 02:27:07;;;;;;;218.13;49.55;;;6.70;99.90;;;;;;5040545;28;20120;-49
2023/04/23 02:29:33;;;;;;;156.65;46.88;;;6.70;99.90;;;;;;5038043;28;20045;-50
2023/04/23 02:31:59;;;;;;;161.90;47.15;;;7.00;99.90;;;;;;5031979;28;20044;-51
2023/04/23 02:34:25;;;;;;;147.05;48.67;;;6.80;99.90;;;;;;5041100;28;20049;-50
2023/04/23 02:36:51;;;;;;;269.05;54.10;;;6.60;99.90;;;;;;5037742;28;20041;-50
2023/04/23 02:39:17;;;;;;;189.02;49.33;;;7.40;99.90;;;;;;5035271;28;20506;-50
2023/04/23 02:41:43;;;;;;;161.75;48.65;;;6.90;99.90;;;;;;5036161;28;20046;-49
2023/04/23 02:44:08;;;;;;;174.30;52.38;;;6.50;99.90;;;;;;5021890;28;20045;-47
2023/04/23 02:46:36;;;;;;;201.90;53.17;;;8.20;99.90;;;;;;5034065;28;20045;-51
2023/04/23 02:49:02;;;;;;;190.27;49.40;;;6.40;99.90;;;;;;5037796;28;20521;-50
2023/04/23 02:51:28;;;;;;;183.90;53.47;;;7.30;99.90;;;;;;5011917;28;20077;-51
2023/04/23 02:53:54;;;;;;;187.50;52.40;;;6.40;99.90;;;;;;5038464;28;20754;-50
2023/04/23 02:56:20;;;;;;;174.18;50.08;;;7.40;99.90;;;;;;5010361;28;20149;-50
2023/04/23 02:58:46;;;;;;;181.80;51.35;;;6.60;99.90;;;;;;5032986;28;20049;-51
2023/04/23 03:01:12;;;;;;;221.57;53.30;;;6.30;99.90;;;;;;5038553;28;20053;-52
2023/04/23 03:03:38;;;;;;;178.55;53.33;;;6.30;99.90;;;;;;5033733;28;20045;-49
2023/04/23 03:06:05;;;;;;;312.80;60.85;;;6.30;99.90;;;;;;5037501;28;20048;-50
2023/04/23 03:08:31;;;;;;;196.45;53.35;;;6.30;99.90;;;;;;5016663;28;20041;-48
2023/04/23 03:10:57;;;;;;;246.75;56.90;;;6.30;99.90;;;;;;5029129;28;20044;-50
2023/04/23 03:13:23;;;;;;;225.57;57.55;;;7.30;99.90;;;;;;5039478;28;20081;-46
2023/04/23 03:15:50;;;;;;;196.38;55.13;;;6.20;99.90;;;;;;5027154;28;20048;-48
2023/04/23 03:18:15;;;;;;;190.25;54.78;;;6.90;99.90;;;;;;5015328;28;20049;-51
2023/04/23 03:20:41;;;;;;;189.40;54.30;;;6.20;99.90;;;;;;5039231;28;20056;-49
2023/04/23 03:23:07;;;;;;;238.82;58.50;;;6.20;99.90;;;;;;5033074;28;20084;-50
2023/04/23 03:25:33;;;;;;;237.13;57.25;;;6.20;99.90;;;;;;5026805;28;20048;-47
2023/04/23 03:27:59;;;;;;;224.25;57.58;;;6.20;99.90;;;;;;5034363;28;20048;-47
2023/04/23 03:30:26;;;;;;;199.48;56.45;;;6.70;99.90;;;;;;5035544;28;20037;-50
2023/04/23 03:32:55;;;;;;;211.43;58.85;;;6.10;99.90;;;;;;5019880;28;20052;-50
2023/04/23 03:35:21;;;;;;;252.13;62.33;;;6.20;99.90;;;;;;5027106;28;20110;-48
2023/04/23 03:37:47;;;;;;;198.13;57.92;;;6.20;99.90;;;;;;5032613;28;20115;-50
2023/04/23 03:40:13;;;;;;;224.07;61.40;;;6.20;99.90;;;;;;5033249;28;20049;-51
2023/04/23 03:42:38;;;;;;;308.27;63.28;;;7.20;99.90;;;;;;5031790;28;20900;-50
2023/04/23 03:45:05;;;;;;;283.63;62.78;;;6.20;99.90;;;;;;5013320;28;20125;-48
2023/04/23 03:47:30;;;;;;;306.95;64.60;;;6.10;99.90;;;;;;5008249;28;20057;-48
2023/04/23 03:49:56;;;;;;;266.38;65.80;;;6.70;99.90;;;;;;5038310;28;20033;-51
2023/04/23 03:52:22;;;;;;;261.92;62.53;;;7.00;99.90;;;;;;5035999;28;20172;-49
2023/04/23 03:54:47;;;;;;;292.23;66.35;;;6.20;99.90;;;;;;5036161;28;20132;-51
2023/04/23 03:57:13;;;;;;;240.70;65.15;;;6.10;99.90;;;;;;5035653;28;20053;-49
2023/04/23 03:59:39;;;;;;;257.73;64.78;;;6.10;99.90;;;;;;5035034;28;20091;-50
2023/04/23 04:02:05;;;;;;;288.40;66.55;;;6.90;99.90;;;;;;5032730;28;20127;-50
2023/04/23 04:04:32;;;;;;;305.77;69.63;;;6.10;99.90;;;;;;5007539;28;20077;-47
2023/04/23 04:07:01;;;;;;;272.02;66.60;;;6.10;99.90;;;;;;5032414;28;20130;-49
2023/04/23 04:09:27;;;;;;;291.05;69.32;;;6.50;99.90;;;;;;5038437;28;20126;-49
2023/04/23 04:11:54;;;;;;;255.68;67.50;;;7.00;99.90;;;;;;5032179;28;20045;-47
2023/04/23 04:14:21;;;;;;;364.40;73.45;;;6.10;99.90;;;;;;5032197;28;20038;-50
2023/04/23 04:16:46;;;;;;;290.90;69.75;;;6.50;99.90;;;;;;5036960;28;20049;-49
2023/04/23 04:19:12;;;;;;;284.58;67.65;;;6.10;99.90;;;;;;5029464;28;20102;-47
2023/04/23 04:21:38;;;;;;;368.95;73.32;;;7.10;99.90;;;;;;5018768;28;20059;-48
2023/04/23 04:24:04;;;;;;;325.83;72.93;;;6.10;99.90;;;;;;5034389;28;20623;-50
2023/04/23 04:26:33;;;;;;;378.63;75.43;;;6.20;99.90;;;;;;5031002;28;20052;-50
2023/04/23 04:29:00;;;;;;;272.30;70.60;;;6.20;99.90;;;;;;5034010;28;20045;-50
2023/04/23 04:31:27;;;;;;;290.90;74.90;;;6.20;99.90;;;;;;5020705;28;20041;-47
2023/04/23 04:33:56;;;;;;;254.18;75.20;;;6.20;99.90;;;;;;5026171;28;20057;-50
2023/04/23 04:36:24;;;;;;;335.05;75.80;;;6.20;99.90;;;;;;5029968;28;20053;-48
2023/04/23 04:38:54;;;;;;;381.33;76.07;;;6.30;99.90;;;;;;5012645;28;20081;-50
2023/04/23 04:41:21;;;;;;;361.98;73.50;;;6.50;99.90;;;;;;5033581;28;20055;-50
2023/04/23 04:43:47;;;;;;;368.27;76.10;;;6.30;99.90;;;;;;5025977;28;20463;-51
2023/04/23 04:46:14;;;;;;;282.00;73.00;;;6.50;99.90;;;;;;5036412;28;20403;-49
2023/04/23 04:48:40;;;;;;;291.58;77.05;;;7.40;99.90;;;;;;5030779;28;20059;-50
2023/04/23 04:51:06;;;;;;;344.50;80.10;;;6.70;99.90;;;;;;5028719;28;20488;-49
2023/04/23 04:53:32;;;;;;;348.40;80.30;;;6.50;99.90;;;;;;5007327;28;20072;-47
2023/04/23 04:55:58;;;;;;;321.50;76.28;;;6.60;99.90;;;;;;5027951;28;20144;-50
2023/04/23 04:58:24;;;;;;;277.95;75.05;;;6.60;99.90;;;;;;5032920;28;20180;-49
2023/04/23 05:00:50;;;;;;;311.20;77.45;;;7.00;99.90;;;;;;5032126;28;20124;-50
2023/04/23 05:03:18;;;;;;;447.35;82.45;;;6.70;99.90;;;;;;5030823;28;20053;-50
2023/04/23 05:05:44;;;;;;;342.38;77.13;;;6.80;99.90;;;;;;5030439;28;20041;-51
2023/04/23 05:08:10;;;;;;;287.65;78.35;;;7.00;99.90;;;;;;5036046;28;20041;-49
2023/04/23 05:10:36;;;;;;;308.75;78.80;;;6.90;99.90;;;;;;5036368;28;20040;-49
2023/04/23 05:13:02;;;;;;;370.02;78.95;;;7.80;99.90;;;;;;5024094;28;20203;-49
2023/04/23 05:15:28;;;;;;;304.42;80.68;;;7.00;99.90;;;;;;5027906;28;20519;-51
2023/04/23 05:17:53;;;;;;;340.08;80.03;;;7.10;99.90;;;;;;5033906;28;20805;-51
2023/04/23 05:20:20;;;;;;;276.95;75.47;;;7.30;99.90;;;;;;5033328;28;20063;-48
2023/04/23 05:22:45;;;;;;;331.27;78.78;;;7.30;99.90;;;;;;5028037;28;20092;-51
2023/04/23 05:25:11;;;;;;;253.57;73.50;;;7.40;99.90;;;;;;5027668;28;20128;-49
2023/04/23 05:27:38;;;;;;;283.98;76.55;;;7.30;99.90;;;;;;5031282;28;20050;-51
2023/04/23 05:30:07;;;;;;;282.08;78.30;;;7.40;99.90;;;;;;5037359;28;20042;-49
2023/04/23 05:32:33;;;;;;;309.45;74.82;;;7.40;99.90;;;;;;5033068;28;20040;-47
2023/04/23 05:35:01;;;;;;;297.65;76.18;;;7.50;99.90;;;;;;5028602;28;20113;-49
2023/04/23 05:37:27;;;;;;;244.80;74.60;;;7.50;99.90;;;;;;5033639;28;20049;-47
2023/04/23 05:39:53;;;;;;;258.65;75.43;;;7.60;99.90;;;;;;5036503;28;20041;-51
2023/04/23 05:42:19;;;;;;;211.45;71.82;;;8.10;99.90;;;;;;5033609;28;20052;-50
2023/04/23 05:44:45;;;;;;;237.07;69.07;;;7.70;99.90;;;;;;5036731;28;20079;-49
2023/04/23 05:47:12;;;;;;;249.82;73.88;;;7.70;99.90;;;;;;5033363;28;20048;-48
2023/04/23 05:49:38;;;;;;;212.95;69.55;;;8.70;99.90;;;;;;5018318;28;20107;-49
2023/04/23 05:52:04;;;;;;;293.33;73.13;;;7.70;99.90;;;;;;5035268;28;20069;-48
2023/04/23 05:54:30;;;;;;;256.83;69.28;;;8.00;99.90;;;;;;5035254;28;20045;-50
2023/04/23 05:56:56;;;;;;;217.60;70.65;;;7.80;99.90;;;;;;5023068;28;20096;-50
2023/04/23 05:59:21;;;;;;;232.13;69.90;;;7.70;99.90;;;;;;5040165;28;20446;-47
2023/04/23 06:01:48;;;;;;;198.88;69.00;;;7.90;99.90;;;;;;5036032;28;20041;-51
2023/04/23 06:04:15;;;;;;;231.10;66.15;;;8.00;99.90;;;;;;5040813;28;20049;-49
2023/04/23 06:06:42;;;;;;;226.98;73.38;;;8.10;99.90;;;;;;5035280;28;20037;-47
2023/04/23 06:09:07;;;;;;;202.40;68.85;;;8.60;99.90;;;;;;5029720;28;20052;-50
2023/04/23 06:11:34;;;;;;;195.23;70.93;;;8.40;99.90;;;;;;5036476;28;20045;-49
2023/04/23 06:14:01;;;;;;;226.68;70.47;;;8.50;99.90;;;;;;5038050;28;20120;-50
2023/04/23 06:16:27;;;;;;;238.30;72.35;;;8.50;99.90;;;;;;5032693;28;20131;-50
2023/04/23 06:18:55;;;;;;;217.95;71.85;;;8.60;99.90;;;;;;5029515;28;20041;-47
2023/04/23 06:21:21;;;;;;;209.48;70.65;;;8.90;99.90;;;;;;5009783;28;20123;-47
2023/04/23 06:23:47;;;;;;;198.70;72.88;;;9.40;99.90;;;;;;5040630;28;20764;-48
2023/04/23 06:26:13;;;;;;;227.85;71.95;;;9.90;99.90;;;;;;5037173;28;20096;-50
2023/04/23 06:28:40;;;;;;;174.30;69.57;;;10.20;99.90;;;;;;5014448;28;20033;-50
2023/04/23 06:31:07;;;;;;;146.45;64.47;;;10.70;99.90;;;;;;5037077;28;20045;-51
2023/04/23 06:33:35;;;;;;;165.13;66.25;;;10.50;99.90;;;;;;5035570;28;20504;-51
2023/04/23 06:36:01;;;;;;;202.25;65.53;;;10.40;99.90;;;;;;5010739;28;20483;-50
2023/04/23 06:38:26;;;;;;;132.15;62.63;;;10.60;99.90;;;;;;5031294;28;20045;-50
2023/04/23 06:40:52;;;;;;;144.25;65.55;;;10.90;99.90;;;;;;5028706;28;20530;-52
2023/04/23 06:43:18;;;;;;;120.40;60.20;;;11.50;99.90;;;;;;5039351;28;20775;-50
2023/04/23 06:45:43;;;;;;;105.18;55.40;;;11.60;99.90;;;;;;5010159;28;20041;-51
2023/04/23 06:48:09;;;;;;;105.80;56.05;;;11.80;99.90;;;;;;5033277;28;20049;-51
2023/04/23 06:50:35;;;;;;;86.90;51.28;;;12.20;99.90;;;;;;5019044;28;20052;-51
2023/04/23 06:53:01;;;;;;;85.90;52.30;;;12.40;99.90;;;;;;5024836;28;20068;-49
2023/04/23 06:55:27;;;;;;;78.15;50.78;;;12.80;99.90;;;;;;5032118;28;20060;-52
2023/04/23 06:57:54;;;;;;;76.30;50.70;;;13.10;99.90;;;;;;5032348;28;20037;-47
2023/04/23 07:00:21;;;;;;;68.18;45.53;;;13.40;99.90;;;;;;5031587;28;20215;-49
2023/04/23 07:02:47;;;;;;;67.80;42.42;;;13.60;99.90;;;;;;5040467;28;20475;-49
2023/04/23 07:05:12;;;;;;;57.28;41.10;;;13.80;99.90;;;;;;5014229;28;20155;-48
2023/04/23 07:07:39;;;;;;;57.85;40.65;;;13.70;99.90;;;;;;5025778;28;20091;-50
2023/04/23 07:10:06;;;;;;;60.03;41.03;;;13.70;99.90;;;;;;5016341;28;20123;-47
2023/04/23 07:12:31;;;;;;;61.83;41.65;;;13.60;99.90;;;;;;5019616;28;20045;-51
2023/04/23 07:14:57;;;;;;;56.53;40.55;;;13.50;99.90;;;;;;5035573;28;20482;-48
2023/04/23 07:17:23;;;;;;;53.55;38.83;;;13.50;99.90;;;;;;5028856;28;20152;-51
2023/04/23 07:19:49;;;;;;;48.78;36.65;;;13.60;99.90;;;;;;5032623;28;20060;-48
2023/04/23 07:22:15;;;;;;;53.58;37.03;;;13.70;99.90;;;;;;5026438;28;20136;-47
2023/04/23 07:24:40;;;;;;;47.60;34.70;;;13.70;99.90;;;;;;5009763;28;20537;-47
2023/04/23 07:27:06;;;;;;;45.67;32.92;;;13.80;99.90;;;;;;5036374;28;20044;-52
2023/04/23 07:29:32;;;;;;;44.25;32.95;;;13.80;99.90;;;;;;5042827;28;20375;-51
2023/04/23 07:31:58;;;;;;;43.25;31.48;;;13.70;99.90;;;;;;5037961;28;20491;-51
2023/04/23 07:34:24;;;;;;;40.70;29.75;;;13.80;99.90;;;;;;5035163;28;20072;-49
2023/04/23 07:36:50;;;;;;;39.45;30.45;;;13.70;99.90;;;;;;5034511;28;20038;-50
2023/04/23 07:39:16;;;;;;;38.65;28.95;;;13.70;99.90;;;;;;5038930;28;20789;-50
2023/04/23 07:41:42;;;;;;;40.78;29.10;;;13.80;99.90;;;;;;5036838;28;20132;-49
2023/04/23 07:44:08;;;;;;;38.63;28.50;;;13.90;99.90;;;;;;5026211;28;20079;-50
2023/04/23 07:46:33;;;;;;;40.40;29.75;;;14.10;99.90;;;;;;5034057;28;20068;-49
2023/04/23 07:48:59;;;;;;;39.92;30.27;;;14.30;99.90;;;;;;5037357;28;20079;-50
2023/04/23 07:51:25;;;;;;;35.15;28.45;;;14.50;99.90;;;;;;5026901;28;20399;-51
2023/04/23 07:53:55;;;;;;;36.10;28.17;;;14.70;99.90;;;;;;5039863;28;20206;-47
2023/04/23 07:56:23;;;;;;;37.95;27.73;;;14.90;99.90;;;;;;5034996;28;20045;-48
2023/04/23 07:58:49;;;;;;;37.83;28.77;;;15.00;99.90;;;;;;5041053;28;20509;-48
2023/04/23 08:01:15;;;;;;;35.33;28.00;;;15.10;99.90;;;;;;5037065;28;20046;-47
2023/04/23 08:03:41;;;;;;;35.72;27.27;;;15.30;99.90;;;;;;5027333;28;20075;-50
2023/04/23 08:06:14;;;;;;;34.60;27.17;;;15.40;99.90;;;;;;5036823;28;20037;-49
2023/04/23 08:08:39;;;;;;;32.63;26.38;;;15.70;99.90;;;;;;5038077;28;20429;-50
2023/04/23 08:11:06;;;;;;;30.52;25.33;;;16.10;99.90;;;;;;5036800;28;20045;-49
2023/04/23 08:13:32;;;;;;;30.85;25.17;;;16.60;99.90;;;;;;5039117;28;20083;-50
2023/04/23 08:15:57;;;;;;;29.92;25.23;;;17.10;99.90;;;;;;5038197;28;20041;-50
2023/04/23 08:18:23;;;;;;;30.80;25.83;;;17.50;99.90;;;;;;5034804;28;20064;-51
2023/04/23 08:20:49;;;;;;;30.38;24.90;;;18.00;99.90;;;;;;5034877;28;20136;-51
2023/04/23 08:23:15;;;;;;;25.25;22.20;;;18.40;99.90;;;;;;5037878;28;20048;-50
2023/04/23 08:25:41;;;;;;;29.88;24.38;;;18.90;99.90;;;;;;5032701;28;20037;-50
2023/04/23 08:28:07;;;;;;;25.08;22.15;;;19.30;99.90;;;;;;5033235;28;20036;-50
2023/04/23 08:30:32;;;;;;;24.70;21.58;;;19.60;99.90;;;;;;5029412;28;20041;-48
2023/04/23 08:32:58;;;;;;;23.45;20.60;;;19.80;99.90;;;;;;5030777;28;20077;-50
2023/04/23 08:35:24;;;;;;;21.95;19.65;;;20.10;99.90;;;;;;5036115;28;20079;-49
2023/04/23 08:37:50;;;;;;;24.20;20.40;;;20.40;99.90;;;;;;5038137;28;20037;-49
2023/04/23 08:40:15;;;;;;;26.08;22.02;;;20.60;99.90;;;;;;5042147;28;20525;-50
2023/04/23 08:42:51;;;;;;;22.38;19.15;;;20.90;99.90;;;;;;5043552;28;20542;-49
2023/04/23 08:45:18;;;;;;;21.92;19.52;;;21.20;99.90;;;;;;5028225;28;20479;-51
2023/04/23 08:47:44;;;;;;;21.48;18.30;;;21.40;99.90;;;;;;5029981;28;20059;-48
2023/04/23 08:50:11;;;;;;;22.52;19.42;;;21.50;99.50;;;;;;5032722;28;20053;-48
2023/04/23 08:52:41;;;;;;;20.38;18.02;;;21.50;99.00;;;;;;5034394;28;20047;-51
2023/04/23 08:55:13;;;;;;;20.08;17.95;;;21.60;98.70;;;;;;5024777;28;20041;-48
2023/04/23 08:57:40;;;;;;;23.15;20.65;;;21.70;98.30;;;;;;5024926;28;20812;-51
2023/04/23 09:00:07;;;;;;;20.73;18.15;;;21.70;98.00;;;;;;5032620;28;20502;-49
2023/04/23 09:02:38;;;;;;;20.77;17.88;;;21.80;97.30;;;;;;5029059;28;20078;-50
2023/04/23 09:05:04;;;;;;;20.48;18.15;;;21.80;96.90;;;;;;5037623;28;20044;-51
2023/04/23 09:07:30;;;;;;;18.42;16.45;;;21.90;96.30;;;;;;5030699;28;20458;-48
2023/04/23 09:09:56;;;;;;;17.52;15.35;;;22.10;96.50;;;;;;5036028;28;20091;-49
2023/04/23 09:12:25;;;;;;;17.35;15.50;;;22.20;95.00;;;;;;5039869;28;20248;-50
2023/04/23 09:14:50;;;;;;;17.08;15.27;;;21.60;94.50;;;;;;5035412;28;20548;-52
2023/04/23 09:17:21;;;;;;;17.63;15.80;;;22.50;94.50;;;;;;5035551;28;20052;-49
2023/04/23 09:19:49;;;;;;;20.15;17.25;;;22.50;94.10;;;;;;5037040;28;20052;-48
2023/04/23 09:22:36;;;;;;;14.32;12.52;;;22.60;94.10;;;;;;5030037;28;20075;-51
2023/04/23 09:25:04;;;;;;;14.98;12.02;;;22.50;93.00;;;;;;5039511;28;20188;-50
2023/04/23 09:27:30;;;;;;;17.95;13.93;;;22.60;93.50;;;;;;5045318;28;20811;-51
2023/04/23 09:29:56;;;;;;;15.57;13.93;;;22.50;93.30;;;;;;5041102;28;20125;-49
2023/04/23 09:32:32;;;;;;;14.90;13.15;;;22.30;93.40;;;;;;5044156;28;20124;-49
2023/04/23 09:34:58;;;;;;;14.93;13.32;;;22.10;92.00;;;;;;5039344;28;20036;-51
2023/04/23 09:37:27;;;;;;;15.93;14.23;;;22.10;93.70;;;;;;5042158;28;20490;-51
2023/04/23 09:39:55;;;;;;;16.33;14.23;;;21.90;92.90;;;;;;5041623;28;20129;-51
2023/04/23 09:42:23;;;;;;;14.50;11.98;;;21.70;93.10;;;;;;5036286;28;20041;-50
2023/04/23 09:45:10;;;;;;;12.85;11.40;;;21.40;93.10;;;;;;5037108;28;20048;-50
2023/04/23 09:47:46;;;;;;;15.10;12.30;;;21.10;92.00;;;;;;5036016;28;20384;-53
2023/04/23 09:50:12;;;;;;;14.07;11.45;;;20.90;93.10;;;;;;5037729;28;20037;-51
2023/04/23 09:52:38;;;;;;;14.00;10.85;;;20.60;93.50;;;;;;5040079;28;20098;-51
2023/04/23 09:55:05;;;;;;;15.10;11.73;;;20.40;93.50;;;;;;5039721;28;20056;-51
2023/04/23 09:57:36;;;;;;;12.68;11.13;;;20.40;94.00;;;;;;5038335;28;20040;-51
2023/04/23 10:00:17;;;;;;;10.40;8.95;;;20.60;94.80;;;;;;5035456;28;20668;-49
2023/04/23 10:02:49;;;;;;;10.40;8.07;;;20.80;93.90;;;;;;5031027;28;20136;-48
2023/04/23 10:05:20;;;;;;;10.43;8.75;;;20.80;93.70;;;;;;5033217;28;20132;-51
2023/04/23 10:07:47;;;;;;;12.68;8.38;;;21.00;93.60;;;;;;5031279;28;20047;-51
2023/04/23 10:10:18;;;;;;;8.88;6.35;;;21.00;93.40;;;;;;5001590;28;20141;-51
2023/04/23 10:12:44;;;;;;;11.15;7.38;;;21.10;92.40;;;;;;5032437;28;20100;-49
2023/04/23 10:15:11;;;;;;;10.70;7.75;;;21.20;92.40;;;;;;5034209;28;20661;-48
2023/04/23 10:17:38;;;;;;;8.85;5.72;;;21.30;92.20;;;;;;5044923;28;20044;-51
2023/04/23 10:20:06;;;;;;;10.48;5.32;;;21.40;92.80;;;;;;5043078;28;20041;-51
2023/04/23 10:22:33;;;;;;;9.25;5.05;;;21.40;92.70;;;;;;5037620;28;20052;-49
2023/04/23 10:25:03;;;;;;;7.28;4.45;;;21.50;92.70;;;;;;5034087;28;20048;-49
2023/04/23 10:27:30;;;;;;;10.32;4.53;;;21.10;91.80;;;;;;5033524;28;20052;-47
2023/04/23 10:30:00;;;;;;;8.38;4.38;;;21.60;92.20;;;;;;5032215;28;20037;-50
2023/04/23 10:32:26;;;;;;;7.75;4.40;;;21.70;91.80;;;;;;5037911;28;20080;-52
2023/04/23 10:34:52;;;;;;;8.50;3.55;;;21.90;91.40;;;;;;5031940;28;20049;-49
2023/04/23 10:37:19;;;;;;;6.88;3.75;;;21.90;91.20;;;;;;5036513;28;20434;-50
2023/04/23 10:39:49;;;;;;;9.27;4.45;;;21.90;88.70;;;;;;5035758;28;20037;-48
2023/04/23 10:42:16;;;;;;;8.65;4.63;;;21.90;88.40;;;;;;5031066;28;20041;-50
2023/04/23 10:44:42;;;;;;;5.97;3.42;;;21.90;89.40;;;;;;5026949;28;20858;-50
2023/04/23 10:47:13;;;;;;;10.43;4.80;;;21.90;88.50;;;;;;5036458;28;20091;-50
2023/04/23 10:49:39;;;;;;;6.53;3.13;;;21.70;88.20;;;;;;5032970;28;20037;-50
2023/04/23 10:52:14;;;;;;;9.25;3.88;;;21.50;87.90;;;;;;5019758;28;20402;-48
2023/04/23 10:54:41;;;;;;;7.68;4.53;;;21.10;86.70;;;;;;5038089;28;20057;-49
2023/04/23 10:57:08;;;;;;;7.63;3.60;;;21.00;87.30;;;;;;5035698;28;20053;-51
2023/04/23 10:59:37;;;;;;;7.07;3.55;;;20.80;88.40;;;;;;5030778;28;20099;-48
2023/04/23 11:02:07;;;;;;;5.53;2.75;;;20.80;89.70;;;;;;5038075;28;20095;-51
2023/04/23 11:04:35;;;;;;;8.15;3.60;;;20.70;90.50;;;;;;5028545;28;20041;-51
2023/04/23 11:07:08;;;;;;;5.28;2.15;;;20.60;90.40;;;;;;5034651;28;20060;-50
2023/04/23 11:09:38;;;;;;;6.95;2.53;;;20.50;90.10;;;;;;5034899;28;20453;-47
2023/04/23 11:12:07;;;;;;;6.22;2.00;;;20.40;90.00;;;;;;5034047;28;20132;-52
2023/04/23 11:14:40;;;;;;;6.45;1.92;;;20.20;88.20;;;;;;5032395;28;20046;-50
2023/04/23 11:17:05;;;;;;;6.25;2.10;;;20.10;88.60;;;;;;5037754;28;20049;-50
2023/04/23 11:19:35;;;;;;;7.05;1.85;;;19.80;88.60;;;;;;5033105;28;20041;-51
2023/04/23 11:22:19;;;;;;;5.85;2.45;;;19.70;89.10;;;;;;5033291;28;20041;-51
2023/04/23 11:24:45;;;;;;;5.38;1.73;;;19.70;89.50;;;;;;4985680;28;20123;-62
2023/04/23 11:27:14;;;;;;;8.20;2.40;;;19.60;89.00;;;;;;5013865;28;20032;-64
2023/04/23 11:29:42;;;;;;;5.00;2.10;;;19.50;89.00;;;;;;5015676;28;20037;-56
2023/04/23 11:32:12;;;;;;;5.45;1.83;;;19.50;88.90;;;;;;5021724;28;20041;-60
2023/04/23 11:34:43;;;;;;;6.75;2.17;;;19.60;89.00;;;;;;5025132;28;20591;-59
2023/04/23 11:37:10;;;;;;;4.80;1.10;;;19.60;89.70;;;;;;5021570;28;20029;-61
2023/04/23 11:39:36;;;;;;;7.35;1.80;;;19.70;89.70;;;;;;5004943;28;20049;-63
2023/04/23 11:42:03;;;;;;;5.32;0.95;;;19.70;88.90;;;;;;5014329;28;20040;-67
2023/04/23 11:44:30;;;;;;;4.38;0.60;;;19.70;88.10;;;;;;4992619;28;20102;-63
2023/04/23 11:46:59;;;;;;;3.33;0.60;;;19.80;86.40;;;;;;5011295;28;20116;-64
2023/04/23 11:49:25;;;;;;;6.97;1.23;;;19.80;86.00;;;;;;5007711;28;20040;-64
2023/04/23 11:51:51;;;;;;;6.30;0.80;;;19.70;85.50;;;;;;4964618;28;20076;-63
2023/04/23 11:54:17;;;;;;;7.55;0.70;;;19.50;84.20;;;;;;4983334;28;20800;-63
2023/04/23 11:56:43;;;;;;;3.38;0.40;;;19.20;83.90;;;;;;5014690;28;20126;-63
2023/04/23 11:59:09;;;;;;;5.22;1.00;;;19.10;84.10;;;;;;5015635;28;20045;-62
2023/04/23 12:01:47;;;;;;;4.85;0.50;;;19.00;84.30;;;;;;5021042;28;20030;-63
2023/04/23 12:04:20;;;;;;;5.95;0.82;;;19.10;85.30;;;;;;5010739;28;20053;-63
2023/04/23 12:06:47;;;;;;;3.50;0.68;;;19.00;83.90;;;;;;5006551;28;20025;-63
2023/04/23 12:09:14;;;;;;;3.92;0.88;;;19.00;84.10;;;;;;5017745;28;20042;-62
2023/04/23 12:11:41;;;;;;;4.05;0.47;;;19.00;84.70;;;;;;5006907;28;20120;-62
2023/04/23 12:14:09;;;;;;;5.55;0.85;;;19.00;83.90;;;;;;5029356;28;20068;-62
2023/04/23 12:16:45;;;;;;;3.30;0.52;;;18.90;83.10;;;;;;5029061;28;20028;-63
2023/04/23 12:19:19;;;;;;;2.33;0.35;;;18.80;82.40;;;;;;5033038;28;20037;-63
2023/04/23 12:21:55;;;;;;;3.45;0.60;;;18.70;81.80;;;;;;5010097;28;20103;-63
2023/04/23 12:24:22;;;;;;;3.58;0.57;;;18.60;82.50;;;;;;4987074;28;20057;-63
2023/04/23 12:26:53;;;;;;;2.67;0.60;;;18.60;83.30;;;;;;5016091;28;20638;-63
2023/04/23 12:29:20;;;;;;;4.40;0.50;;;18.60;84.00;;;;;;5020345;28;20076;-63